Time;durP1;ratioP1;P1;durP2;ratioP2;P2;SDS_P1;SDS_P2;PMS_P1;PMS_P2;Temp;Humidity;BMP_temperature;BMP_pressure;BME280_temperature;BME280_humidity;BME280_pressure;Samples;Min_cycle;Max_cycle;Signal;HPM_P1;HPM_P2
2021/03/04 19:28:40;;;;;;;18.52;10.50;;;13.00;55.00;;;;;;5068837;28;20446;-50
2021/03/04 19:31:06;;;;;;;16.73;11.02;;;13.00;55.20;;;;;;5077400;28;20139;-49
2021/03/04 19:33:31;;;;;;;15.10;10.65;;;12.90;54.60;;;;;;5070949;28;20055;-51
2021/03/04 19:35:57;;;;;;;16.67;9.60;;;13.00;54.10;;;;;;5077234;28;20043;-53
2021/03/04 19:38:22;;;;;;;14.10;10.60;;;13.10;53.50;;;;;;5073142;28;20482;-53
2021/03/04 19:40:48;;;;;;;17.27;9.88;;;13.00;53.50;;;;;;5078464;28;20032;-54
2021/03/04 19:43:14;;;;;;;15.43;10.23;;;13.10;53.40;;;;;;5078353;28;20066;-52
2021/03/04 19:45:40;;;;;;;15.70;9.93;;;13.20;53.30;;;;;;5084559;28;20119;-49
2021/03/04 19:48:06;;;;;;;22.90;11.52;;;13.20;53.10;;;;;;5075736;28;20048;-48
2021/03/04 19:50:32;;;;;;;20.50;10.55;;;13.10;52.80;;;;;;5071697;28;20498;-47
2021/03/04 19:52:57;;;;;;;17.70;11.52;;;13.20;52.60;;;;;;5076162;28;20035;-48
2021/03/04 19:55:24;;;;;;;20.05;12.63;;;13.20;52.50;;;;;;5074288;28;20036;-51
2021/03/04 19:57:50;;;;;;;18.17;10.77;;;13.10;52.80;;;;;;5075766;28;20032;-51
2021/03/04 20:00:16;;;;;;;16.55;10.48;;;13.10;51.90;;;;;;5069925;28;20532;-49
2021/03/04 20:02:44;;;;;;;14.85;10.98;;;13.20;52.10;;;;;;5075260;28;20036;-48
2021/03/04 20:05:11;;;;;;;16.60;10.82;;;13.10;51.70;;;;;;5068985;28;20032;-48
2021/03/04 20:07:37;;;;;;;17.20;10.32;;;13.20;51.60;;;;;;5074589;28;20068;-47
2021/03/04 20:10:05;;;;;;;15.32;10.18;;;13.10;51.70;;;;;;5072904;28;20037;-49
2021/03/04 20:12:30;;;;;;;16.67;11.10;;;13.00;51.70;;;;;;5075803;28;20078;-52
2021/03/04 20:14:56;;;;;;;13.43;11.05;;;13.00;52.30;;;;;;5088256;28;21762;-50
2021/03/04 20:17:22;;;;;;;16.58;10.45;;;13.00;52.20;;;;;;5069900;28;20036;-49
2021/03/04 20:19:47;;;;;;;17.85;10.75;;;13.10;52.00;;;;;;5076535;28;20040;-48
2021/03/04 20:22:13;;;;;;;17.20;11.13;;;13.10;51.70;;;;;;5073065;28;20580;-54
2021/03/04 20:24:39;;;;;;;15.55;11.63;;;13.10;51.70;;;;;;5074165;28;20048;-50
2021/03/04 20:27:05;;;;;;;16.95;11.55;;;13.10;51.60;;;;;;5066820;28;20057;-51
2021/03/04 20:29:30;;;;;;;18.42;11.98;;;13.10;51.60;;;;;;5073251;28;20131;-48
2021/03/04 20:31:56;;;;;;;20.77;11.70;;;13.10;52.00;;;;;;5083751;28;20344;-50
2021/03/04 20:34:22;;;;;;;16.48;11.05;;;13.10;51.40;;;;;;5071006;28;20037;-50
2021/03/04 20:36:49;;;;;;;17.15;12.18;;;13.10;51.70;;;;;;5068490;28;20546;-51
2021/03/04 20:39:15;;;;;;;16.48;11.15;;;13.10;51.70;;;;;;5062986;28;20032;-52
2021/03/04 20:41:41;;;;;;;17.35;10.48;;;13.10;51.70;;;;;;5056983;28;20601;-48
2021/03/04 20:44:11;;;;;;;15.27;11.15;;;13.10;51.70;;;;;;5059179;28;20040;-51
2021/03/04 20:46:41;;;;;;;16.73;10.65;;;13.00;51.60;;;;;;5056132;28;20102;-50
2021/03/04 20:49:07;;;;;;;16.10;10.68;;;13.00;51.20;;;;;;5061607;28;20074;-48
2021/03/04 20:51:34;;;;;;;15.52;10.68;;;12.90;51.50;;;;;;5056657;28;20040;-50
2021/03/04 20:54:00;;;;;;;18.88;11.07;;;13.00;51.70;;;;;;5061167;28;20044;-51
2021/03/04 20:56:26;;;;;;;13.15;10.02;;;13.00;51.80;;;;;;5056180;28;20088;-50
2021/03/04 20:58:52;;;;;;;16.92;10.43;;;13.00;51.70;;;;;;5061083;28;20120;-49
2021/03/04 21:01:18;;;;;;;14.57;10.38;;;13.00;52.10;;;;;;5062047;28;20047;-48
2021/03/04 21:03:43;;;;;;;15.75;10.50;;;13.00;51.60;;;;;;5058011;28;20060;-49
2021/03/04 21:06:09;;;;;;;15.38;10.27;;;13.00;52.00;;;;;;5059822;28;20053;-50
2021/03/04 21:08:35;;;;;;;15.00;10.07;;;12.80;51.40;;;;;;5056845;28;20398;-47
2021/03/04 21:11:01;;;;;;;12.50;9.25;;;13.00;51.80;;;;;;5060232;28;20587;-47
2021/03/04 21:13:26;;;;;;;14.52;10.00;;;12.90;51.90;;;;;;5056003;28;20044;-48
2021/03/04 21:15:52;;;;;;;17.58;10.50;;;12.90;52.00;;;;;;5059651;28;20041;-48
2021/03/04 21:18:17;;;;;;;15.20;10.27;;;12.90;51.90;;;;;;5055252;28;20044;-48
2021/03/04 21:20:43;;;;;;;15.00;10.23;;;12.90;52.10;;;;;;5042581;28;20408;-47
2021/03/04 21:23:09;;;;;;;16.88;9.90;;;12.90;52.10;;;;;;5056982;28;20064;-47
2021/03/04 21:25:35;;;;;;;17.85;9.85;;;12.80;52.20;;;;;;5059138;28;20462;-48
2021/03/04 21:28:01;;;;;;;19.45;10.73;;;12.80;51.70;;;;;;5054160;28;20052;-47
2021/03/04 21:30:27;;;;;;;19.98;10.73;;;12.80;52.00;;;;;;5059632;28;20040;-47
2021/03/04 21:32:54;;;;;;;18.55;10.20;;;12.80;52.20;;;;;;5056376;28;20043;-52
2021/03/04 21:35:21;;;;;;;16.10;9.77;;;12.80;52.30;;;;;;5060086;28;20139;-49
2021/03/04 21:37:46;;;;;;;17.38;10.07;;;12.70;52.00;;;;;;5059320;28;20040;-48
2021/03/04 21:40:12;;;;;;;17.63;10.98;;;12.70;52.40;;;;;;5057120;28;20086;-47
2021/03/04 21:42:38;;;;;;;11.73;8.98;;;12.80;52.20;;;;;;5059520;28;20509;-46
2021/03/04 21:45:05;;;;;;;15.45;10.40;;;12.70;52.10;;;;;;5070289;28;20347;-48
2021/03/04 21:47:31;;;;;;;13.63;10.88;;;12.70;52.00;;;;;;5056524;28;20049;-48
2021/03/04 21:49:57;;;;;;;16.85;10.40;;;12.70;52.00;;;;;;5053077;28;20079;-48
2021/03/04 21:52:23;;;;;;;16.48;10.25;;;12.70;52.10;;;;;;5060208;28;22234;-47
2021/03/04 21:54:48;;;;;;;15.63;10.77;;;12.70;51.90;;;;;;5054046;28;20159;-49
2021/03/04 21:57:14;;;;;;;17.42;11.27;;;12.70;52.50;;;;;;5060763;28;20047;-48
2021/03/04 21:59:40;;;;;;;17.10;10.48;;;12.70;52.20;;;;;;5054584;28;20036;-49
2021/03/04 22:02:05;;;;;;;17.67;10.75;;;12.70;52.40;;;;;;5058126;28;20047;-48
2021/03/04 22:04:31;;;;;;;16.77;11.32;;;12.70;52.70;;;;;;5055004;28;20064;-47
2021/03/04 22:06:56;;;;;;;21.65;11.20;;;12.50;52.50;;;;;;5059231;28;20087;-47
2021/03/04 22:09:22;;;;;;;16.42;11.90;;;12.60;52.90;;;;;;5052333;28;20402;-47
2021/03/04 22:11:48;;;;;;;20.65;11.63;;;12.60;53.30;;;;;;5069451;28;20041;-50
2021/03/04 22:14:13;;;;;;;19.13;11.02;;;12.70;52.90;;;;;;5055576;28;20051;-47
2021/03/04 22:16:39;;;;;;;20.52;11.27;;;12.60;52.90;;;;;;5056129;28;20047;-48
2021/03/04 22:19:05;;;;;;;16.05;11.15;;;12.60;52.90;;;;;;5054186;28;20405;-47
2021/03/04 22:21:30;;;;;;;16.63;11.18;;;12.60;53.20;;;;;;5053668;28;20068;-48
2021/03/04 22:23:56;;;;;;;16.58;11.18;;;12.60;53.30;;;;;;5056821;28;20391;-47
2021/03/04 22:26:22;;;;;;;17.45;11.50;;;12.60;53.30;;;;;;5053127;28;20060;-52
2021/03/04 22:28:47;;;;;;;19.00;10.35;;;12.60;53.10;;;;;;5058882;28;20493;-50
2021/03/04 22:31:13;;;;;;;19.25;12.20;;;12.70;53.20;;;;;;5055158;28;20074;-49
2021/03/04 22:33:38;;;;;;;18.73;11.48;;;12.60;52.90;;;;;;5058070;28;20312;-49
2021/03/04 22:36:04;;;;;;;18.58;11.80;;;12.70;52.80;;;;;;5055271;28;20112;-52
2021/03/04 22:38:30;;;;;;;15.45;10.93;;;12.60;52.90;;;;;;5058310;28;20123;-49
2021/03/04 22:40:56;;;;;;;14.13;10.60;;;12.60;53.30;;;;;;5054730;28;20517;-52
2021/03/04 22:43:23;;;;;;;14.18;11.68;;;12.60;53.20;;;;;;5062378;28;20055;-48
2021/03/04 22:45:49;;;;;;;17.30;11.52;;;12.60;53.10;;;;;;5053935;28;20050;-48
2021/03/04 22:48:15;;;;;;;16.42;11.25;;;12.70;52.80;;;;;;5058577;28;20060;-49
2021/03/04 22:50:40;;;;;;;18.42;11.25;;;12.70;52.70;;;;;;5055893;28;20486;-48
2021/03/04 22:53:06;;;;;;;19.13;12.82;;;12.70;53.40;;;;;;5057463;28;20056;-50
2021/03/04 22:55:32;;;;;;;14.02;11.30;;;12.80;52.90;;;;;;5058243;28;20075;-48
2021/03/04 22:57:57;;;;;;;15.13;11.23;;;12.70;52.70;;;;;;5056180;28;20083;-48
2021/03/04 23:00:23;;;;;;;20.35;11.60;;;12.60;52.90;;;;;;5053812;28;20040;-50
2021/03/04 23:02:49;;;;;;;17.10;10.80;;;12.50;53.10;;;;;;5052826;28;20090;-49
2021/03/04 23:05:15;;;;;;;16.25;11.15;;;12.60;53.10;;;;;;5074743;28;20048;-48
2021/03/04 23:07:42;;;;;;;18.52;11.65;;;12.60;52.90;;;;;;5054133;28;20044;-49
2021/03/04 23:10:13;;;;;;;16.27;11.55;;;12.80;52.80;;;;;;5056738;28;20040;-50
2021/03/04 23:12:39;;;;;;;15.68;11.70;;;12.80;52.80;;;;;;5048559;28;20576;-51
2021/03/04 23:15:07;;;;;;;15.98;10.27;;;12.90;52.50;;;;;;5059186;28;20119;-48
2021/03/04 23:17:33;;;;;;;18.58;11.02;;;12.80;52.20;;;;;;5056172;28;20135;-48
2021/03/04 23:19:59;;;;;;;17.90;11.63;;;12.90;52.30;;;;;;5057143;28;20116;-51
2021/03/04 23:22:25;;;;;;;20.88;10.90;;;12.80;52.30;;;;;;5052730;28;20044;-50
2021/03/04 23:24:52;;;;;;;19.85;11.55;;;12.80;52.10;;;;;;5058290;28;20036;-50
2021/03/04 23:27:18;;;;;;;20.20;11.23;;;12.80;51.90;;;;;;5055236;28;20041;-48
2021/03/04 23:29:44;;;;;;;23.50;12.35;;;12.80;51.70;;;;;;5061282;28;20048;-48
2021/03/04 23:32:10;;;;;;;18.27;11.35;;;12.90;51.80;;;;;;5055487;28;20043;-48
2021/03/04 23:34:35;;;;;;;19.00;11.43;;;12.90;52.10;;;;;;5055230;28;20112;-48
2021/03/04 23:37:02;;;;;;;17.58;10.88;;;12.90;52.10;;;;;;5058719;28;20036;-47
2021/03/04 23:39:28;;;;;;;18.33;12.45;;;12.80;51.80;;;;;;5057451;28;20040;-46
2021/03/04 23:41:54;;;;;;;17.15;11.95;;;12.90;51.90;;;;;;5070799;28;20033;-50
2021/03/04 23:44:20;;;;;;;20.38;12.20;;;12.80;51.60;;;;;;5052769;28;20048;-49
2021/03/04 23:46:45;;;;;;;22.65;12.80;;;12.70;51.80;;;;;;5061073;28;20494;-47
2021/03/04 23:49:20;;;;;;;20.85;13.55;;;12.70;51.70;;;;;;5057433;28;20044;-48
2021/03/04 23:51:46;;;;;;;;;;;12.60;51.20;;;;;;5059861;28;20112;-49
2021/03/04 23:54:17;;;;;;;21.25;13.43;;;12.50;52.10;;;;;;5049090;28;20023;-47
2021/03/04 23:56:43;;;;;;;20.00;14.45;;;12.70;51.90;;;;;;5058445;28;20401;-48
2021/03/04 23:59:08;;;;;;;22.92;14.55;;;12.60;51.80;;;;;;5051394;28;20029;-47
